Latest Weather Observations for Sellicks Hill

IDS60901

Issued at 11:01 pm CST Friday 30 September 2016 (issued every 10 minutes, with the page automatically refreshed every 10 minutes)

About weather observations | Map of Adelaide area stations | Latest observations for Adelaide area | Other Formats
Station Details ID: 023886 Name: MOUNT TERRIBLE RADAR Lat: -35.33 Lon: 138.50 Height: 385.7 m
Data from the previous 72 hours. | See also: Recent months for locations in South Australia
Date/Time
CST
Temp
°C
App
Temp
°C
Dew
Point
°C
Rel
Hum
%
Delta-T
°C
Wind Press
QNH
hPa
Press
MSL
hPa
Rain since
9am
mm
Dir  Spd
km/h
Gust
km/h
Spd
kts
Gust
kts
30/11:00pm - - - - - WNW 9 19 5 10 - - -
30/10:30pm - - - - - W 9 17 5 9 - - -
30/10:00pm - - - - - W 9 24 5 13 - - -
30/09:30pm - - - - - W 9 20 5 11 - - -
30/09:00pm - - - - - WNW 9 19 5 10 - - -
30/08:30pm - - - - - W 9 20 5 11 - - -
30/08:00pm - - - - - W 9 24 5 13 - - -
30/07:30pm - - - - - WSW 11 28 6 15 - - -
30/07:00pm - - - - - WSW 11 24 6 13 - - -
30/06:30pm - - - - - W 11 20 6 11 - - -
30/06:00pm - - - - - WSW 9 22 5 12 - - -
30/05:30pm - - - - - WSW 13 28 7 15 - - -
30/05:00pm - - - - - WSW 13 26 7 14 - - -
30/04:30pm - - - - - W 11 28 6 15 - - -
30/04:00pm - - - - - W 13 28 7 15 - - -
30/03:30pm - - - - - WSW 15 35 8 19 - - -
30/03:00pm - - - - - W 15 35 8 19 - - -
30/02:30pm - - - - - W 13 30 7 16 - - -
30/02:00pm - - - - - W 15 35 8 19 - - -
30/01:30pm - - - - - W 13 28 7 15 - - -
30/01:00pm - - - - - WSW 13 33 7 18 - - -
30/12:30pm - - - - - W 15 37 8 20 - - -
30/12:00pm - - - - - W 13 32 7 17 - - -
30/11:30am - - - - - WSW 11 32 6 17 - - -
30/11:00am - - - - - WSW 13 32 7 17 - - -
30/10:30am - - - - - WSW 19 33 10 18 - - -
30/10:00am - - - - - WSW 13 32 7 17 - - -
30/09:30am - - - - - SW 20 33 11 18 - - -
30/09:00am - - - - - SW 19 41 10 22 - - -
30/08:30am - - - - - SW 11 24 6 13 - - -
30/08:00am - - - - - WSW 13 32 7 17 - - -
30/07:30am - - - - - W 11 35 6 19 - - -
30/07:00am - - - - - W 13 28 7 15 - - -
30/06:30am - - - - - W 13 26 7 14 - - -
30/06:00am - - - - - W 11 22 6 12 - - -
30/05:30am - - - - - W 7 24 4 13 - - -
30/05:00am - - - - - WSW 11 26 6 14 - - -
30/04:30am - - - - - WSW 7 15 4 8 - - -
30/04:00am - - - - - WSW 9 22 5 12 - - -
30/03:30am - - - - - WSW 7 17 4 9 - - -
30/03:00am - - - - - WSW 6 15 3 8 - - -
30/02:30am - - - - - WSW 6 13 3 7 - - -
30/02:00am - - - - - SW 9 20 5 11 - - -
30/01:30am - - - - - SSW 13 22 7 12 - - -
30/01:00am - - - - - SSW 11 24 6 13 - - -
30/12:30am - - - - - S 20 37 11 20 - - -
30/12:00am - - - - - SSW 17 35 9 19 - - -
 
Date/Time
CST
Temp
°C
App
Temp
°C
Dew
Point
°C
Rel
Hum
%
Delta-T
°C
Wind Press
QNH
hPa
Press
MSL
hPa
Rain since
9am
mm
Dir  Spd
km/h
Gust
km/h
Spd
kts
Gust
kts
29/11:30pm - - - - - S 32 46 17 25 - - -
29/11:00pm - - - - - W 20 61 11 33 - - -
29/10:35pm - - - - - W 28 52 15 28 - - -
29/10:30pm - - - - - W 22 48 12 26 - - -
29/10:20pm - - - - - W 28 50 15 27 - - -
29/10:00pm - - - - - W 22 57 12 31 - - -
29/09:30pm - - - - - W 24 52 13 28 - - -
29/09:17pm - - - - - W 28 59 15 32 - - -
29/09:00pm - - - - - W 24 63 13 34 - - -
29/08:45pm - - - - - W 28 52 15 28 - - -
29/08:30pm - - - - - W 24 54 13 29 - - -
29/08:00pm - - - - - W 26 48 14 26 - - -
29/07:30pm - - - - - W 24 50 13 27 - - -
29/07:00pm - - - - - W 24 56 13 30 - - -
29/06:31pm - - - - - W 28 50 15 27 - - -
29/06:30pm - - - - - W 26 46 14 25 - - -
29/06:00pm - - - - - W 24 54 13 29 - - -
29/05:30pm - - - - - W 26 57 14 31 - - -
29/05:00pm - - - - - W 19 41 10 22 - - -
29/04:30pm - - - - - WNW 9 20 5 11 - - -
29/04:00pm - - - - - W 11 22 6 12 - - -
29/03:30pm - - - - - W 13 28 7 15 - - -
29/03:00pm - - - - - WNW 9 17 5 9 - - -
29/02:30pm - - - - - WNW 11 20 6 11 - - -
29/02:00pm - - - - - NW 9 19 5 10 - - -
29/01:30pm - - - - - WNW 17 30 9 16 - - -
29/01:00pm - - - - - WNW 13 24 7 13 - - -
29/12:30pm - - - - - WNW 13 30 7 16 - - -
29/12:00pm - - - - - W 17 33 9 18 - - -
29/11:30am - - - - - W 17 39 9 21 - - -
29/11:00am - - - - - W 17 39 9 21 - - -
29/10:30am - - - - - WSW 15 37 8 20 - - -
29/10:00am - - - - - WSW 17 33 9 18 - - -
29/09:30am - - - - - WSW 17 41 9 22 - - -
29/09:00am - - - - - WSW 15 30 8 16 - - -
29/08:30am - - - - - WSW 17 37 9 20 - - -
29/08:00am - - - - - W 17 33 9 18 - - -
29/07:30am - - - - - NW 9 19 5 10 - - -
29/07:00am - - - - - NNW 24 41 13 22 - - -
29/06:30am - - - - - NNW 26 41 14 22 - - -
29/06:00am - - - - - N 32 56 17 30 - - -
29/05:30am - - - - - NNW 33 61 18 33 - - -
29/05:00am - - - - - NNW 35 65 19 35 - - -
29/04:30am - - - - - NNW 37 65 20 35 - - -
29/04:00am - - - - - NNW 37 65 20 35 - - -
29/03:30am - - - - - NNW 35 56 19 30 - - -
29/03:00am - - - - - NNW 41 70 22 38 - - -
29/02:30am - - - - - NNW 35 61 19 33 - - -
29/02:00am - - - - - NNW 35 61 19 33 - - -
29/01:30am - - - - - NNW 37 67 20 36 - - -
29/01:00am - - - - - NNW 32 59 17 32 - - -
29/12:30am - - - - - NNW 32 57 17 31 - - -
29/12:00am - - - - - NNW 33 57 18 31 - - -
 
Date/Time
CST
Temp
°C
App
Temp
°C
Dew
Point
°C
Rel
Hum
%
Delta-T
°C
Wind Press
QNH
hPa
Press
MSL
hPa
Rain since
9am
mm
Dir  Spd
km/h
Gust
km/h
Spd
kts
Gust
kts
28/11:30pm - - - - - NW 30 50 16 27 - - -
28/11:10pm - - - - - NNW 28 48 15 26 - - -
28/11:00pm - - - - - NNW 26 50 14 27 - - -
28/10:39pm - - - - - NW 28 59 15 32 - - -
28/10:30pm - - - - - NW 17 44 9 24 - - -
28/10:00pm - - - - - NW 17 35 9 19 - - -
28/09:30pm - - - - - NW 15 30 8 16 - - -
28/09:00pm - - - - - NW 17 44 9 24 - - -
28/08:30pm - - - - - NW 19 43 10 23 - - -
28/08:00pm - - - - - NW 15 33 8 18 - - -
28/07:30pm - - - - - NW 19 37 10 20 - - -
28/07:00pm - - - - - NW 17 30 9 16 - - -
28/06:30pm - - - - - WNW 17 30 9 16 - - -
28/06:00pm - - - - - WNW 24 46 13 25 - - -
28/05:30pm - - - - - NW 22 39 12 21 - - -
28/05:00pm - - - - - N 15 35 8 19 - - -
28/04:30pm - - - - - NNE 26 41 14 22 - - -
28/04:00pm - - - - - NNE 26 56 14 30 - - -
28/03:30pm - - - - - ENE 39 63 21 34 - - -
28/03:07pm - - - - - ENE 32 50 17 27 - - -
28/03:00pm - - - - - ENE 37 56 20 30 - - -
28/02:37pm - - - - - ENE 43 61 23 33 - - -
28/02:30pm - - - - - NE 43 61 23 33 - - -
28/02:00pm - - - - - NE 39 59 21 32 - - -
28/01:30pm - - - - - NE 30 61 16 33 - - -
28/01:00pm - - - - - NNE 33 56 18 30 - - -
28/12:42pm - - - - - NNE 28 48 15 26 - - -
28/12:30pm - - - - - NNE 24 43 13 23 - - -
28/12:00pm - - - - - NNW 22 43 12 23 - - -
28/11:30am - - - - - NNE 22 43 12 23 - - -
28/11:13am - - - - - NNE 28 48 15 26 - - -
28/11:00am - - - - - NE 24 43 13 23 - - -
28/10:30am - - - - - NE 26 44 14 24 - - -
28/10:00am - - - - - NNE 22 39 12 21 - - -
28/09:30am - - - - - NNE 15 26 8 14 - - -
28/09:00am - - - - - NNE 26 41 14 22 - - -
28/08:30am - - - - - NNE 24 37 13 20 - - -
28/08:00am - - - - - NNE 20 32 11 17 - - -
28/07:30am - - - - - NNE 20 33 11 18 - - -
28/07:00am - - - - - NNE 15 28 8 15 - - -
28/06:30am - - - - - NNE 15 28 8 15 - - -
28/06:00am - - - - - N 13 22 7 12 - - -
28/05:30am - - - - - N 11 30 6 16 - - -
28/05:00am - - - - - N 11 20 6 11 - - -
28/04:30am - - - - - NNE 11 20 6 11 - - -
28/04:00am - - - - - NNE 9 20 5 11 - - -
28/03:30am - - - - - N 9 15 5 8 - - -
28/03:00am - - - - - NNE 11 20 6 11 - - -
28/02:30am - - - - - N 7 13 4 7 - - -
28/02:00am - - - - - N 7 17 4 9 - - -
28/01:30am - - - - - N 6 9 3 5 - - -
28/01:00am - - - - - N 4 7 2 4 - - -
28/12:30am - - - - - N 4 6 2 3 - - -
28/12:00am - - - - - NNE 7 11 4 6 - - -
 
Date/Time
CST
Temp
°C
App
Temp
°C
Dew
Point
°C
Rel
Hum
%
Delta-T
°C
Wind Press
QNH
hPa
Press
MSL
hPa
Rain since
9am
mm
Dir  Spd
km/h
Gust
km/h
Spd
kts
Gust
kts
27/11:30pm - - - - - N 4 6 2 3 - - -

Latest Capital City Observations: Canberra | Sydney | Melbourne | Brisbane | Adelaide | Perth | Hobart | Darwin

Other Formats:

Comma delimited format used in spreadsheet applications
http://www.bom.gov.au/fwo/IDS60901/IDS60901.95679.axf

JavaScript Object Notation format (JSON) in row-major order
http://www.bom.gov.au/fwo/IDS60901/IDS60901.95679.json